Time;durP1;ratioP1;P1;durP2;ratioP2;P2;SDS_P1;SDS_P2;PMS_P1;PMS_P2;Temp;Humidity;BMP_temperature;BMP_pressure;BME280_temperature;BME280_humidity;BME280_pressure;Samples;Min_cycle;Max_cycle;Signal;HPM_P1;HPM_P2
2022/11/22 00:02:15;;;;;;;82.17;33.65;;;;;;;1.90;84.28;98039.22;1745788;80;21012;-49
2022/11/22 00:04:41;;;;;;;86.55;34.85;;;;;;;1.91;84.08;98033.97;1745293;82;20949;-46
2022/11/22 00:07:07;;;;;;;81.85;35.08;;;;;;;1.96;83.93;98036.36;1745214;82;21035;-42
2022/11/22 00:09:33;;;;;;;90.17;34.08;;;;;;;1.91;83.99;98040.45;1745096;82;21044;-43
2022/11/22 00:11:59;;;;;;;83.22;33.92;;;;;;;1.82;84.04;98048.60;1745173;81;21486;-43
2022/11/22 00:14:25;;;;;;;78.70;32.93;;;;;;;1.84;84.15;98046.79;1745344;81;21481;-45
2022/11/22 00:16:51;;;;;;;82.37;33.53;;;;;;;1.84;84.07;98044.20;1745048;82;20996;-44
2022/11/22 00:19:16;;;;;;;82.50;33.83;;;;;;;1.83;84.22;98045.09;1745137;81;21023;-52
2022/11/22 00:21:42;;;;;;;85.05;35.20;;;;;;;1.82;84.32;98049.90;1745120;81;20985;-46
2022/11/22 00:24:08;;;;;;;85.20;35.52;;;;;;;1.81;84.44;98044.77;1745087;82;20973;-47
2022/11/22 00:26:34;;;;;;;78.85;34.75;;;;;;;1.79;84.57;98056.95;1745146;82;21029;-43
2022/11/22 00:28:59;;;;;;;85.85;36.25;;;;;;;1.79;84.48;98056.48;1745093;82;21015;-43
2022/11/22 00:31:25;;;;;;;90.87;36.03;;;;;;;1.83;84.27;98060.64;1745037;82;21541;-45
2022/11/22 00:33:51;;;;;;;91.67;36.20;;;;;;;1.86;84.21;98061.83;1745172;82;21032;-46
2022/11/22 00:36:17;;;;;;;92.02;36.88;;;;;;;1.85;84.46;98060.59;1745181;82;21509;-43
2022/11/22 00:38:43;;;;;;;91.50;36.88;;;;;;;1.82;84.57;98069.77;1745310;82;20985;-46
2022/11/22 00:41:09;;;;;;;89.65;36.28;;;;;;;1.84;84.61;98076.59;1745383;82;20985;-46
2022/11/22 00:43:35;;;;;;;88.92;38.15;;;;;;;1.89;84.53;98082.45;1745195;81;20982;-45
2022/11/22 00:46:01;;;;;;;92.02;38.45;;;;;;;1.89;84.50;98079.86;1745064;81;21053;-49
2022/11/22 00:48:27;;;;;;;91.40;38.10;;;;;;;1.92;84.26;98084.90;1745105;82;20993;-46
2022/11/22 00:50:54;;;;;;;87.15;37.20;;;;;;;1.95;84.04;98084.38;1745259;82;20965;-49
2022/11/22 00:53:21;;;;;;;91.72;37.05;;;;;;;1.92;84.17;98094.44;1745295;82;20962;-43
2022/11/22 00:55:47;;;;;;;99.20;39.00;;;;;;;1.91;83.95;98093.60;1745386;81;20988;-43
2022/11/22 00:58:13;;;;;;;102.10;39.48;;;;;;;1.89;83.98;98099.73;1745094;82;20985;-49
2022/11/22 01:00:39;;;;;;;98.47;40.28;;;;;;;1.89;83.94;98099.30;1745254;82;20969;-49
2022/11/22 01:03:05;;;;;;;93.62;39.27;;;;;;;1.89;83.98;98096.71;1750766;81;20981;-48
2022/11/22 01:05:30;;;;;;;91.32;38.53;;;;;;;1.91;84.01;98094.90;1750695;82;21445;-45
2022/11/22 01:07:56;;;;;;;90.85;38.38;;;;;;;1.95;83.86;98093.46;1750714;81;21584;-44
2022/11/22 01:10:22;;;;;;;99.50;40.23;;;;;;;1.93;83.92;98092.25;1750859;82;21003;-48
2022/11/22 01:12:48;;;;;;;92.57;38.92;;;;;;;1.90;83.95;98095.79;1750646;81;21031;-46
2022/11/22 01:15:14;;;;;;;93.10;39.78;;;;;;;1.92;83.75;98097.03;1750607;82;20957;-47
2022/11/22 01:17:40;;;;;;;91.87;38.92;;;;;;;1.86;83.95;98103.30;1750657;82;21016;-46
2022/11/22 01:20:08;;;;;;;84.17;36.70;;;;;;;1.84;83.96;98103.81;1750774;81;21561;-46
2022/11/22 01:22:33;;;;;;;90.07;38.45;;;;;;;1.82;84.03;98101.74;1750670;82;21525;-43
2022/11/22 01:24:59;;;;;;;89.13;38.60;;;;;;;1.82;83.87;98102.17;1750632;81;20988;-50
2022/11/22 01:27:25;;;;;;;89.87;37.38;;;;;;;1.81;84.03;98107.81;1750632;82;21457;-49
2022/11/22 01:29:51;;;;;;;90.87;38.45;;;;;;;1.82;84.10;98113.41;1750582;81;20997;-49
2022/11/22 01:32:16;;;;;;;87.67;37.98;;;;;;;1.84;83.86;98111.59;1750636;82;20972;-50
2022/11/22 01:34:42;;;;;;;89.52;35.90;;;;;;;1.84;84.06;98109.47;1750640;82;21007;-39
2022/11/22 01:37:08;;;;;;;85.40;34.55;;;;;;;1.83;83.74;98100.82;1750631;81;21017;-41
2022/11/22 01:39:33;;;;;;;84.60;35.73;;;;;;;1.80;84.04;98091.02;1750608;82;21423;-47
2022/11/22 01:41:59;;;;;;;79.50;33.13;;;;;;;1.82;83.91;98093.97;1750644;81;20989;-43
2022/11/22 01:44:31;;;;;;;79.87;34.65;;;;;;;1.82;83.61;98096.98;1750517;82;20992;-45
2022/11/22 01:47:08;;;;;;;79.42;35.43;;;;;;;1.86;83.47;98097.28;1750644;82;20974;-46
2022/11/22 01:49:59;;;;;;;78.37;32.93;;;;;;;1.92;83.20;98100.45;1750437;82;21581;-50
2022/11/22 01:52:29;;;;;;;74.58;31.93;;;;;;;1.87;83.06;98095.93;1750675;82;21486;-44
2022/11/22 01:54:59;;;;;;;77.53;32.15;;;;;;;1.81;83.25;98099.20;1750529;82;21024;-41
2022/11/22 01:57:30;;;;;;;76.85;33.65;;;;;;;1.78;83.35;98102.73;1750674;82;20961;-49
2022/11/22 02:00:06;;;;;;;72.58;34.20;;;;;;;1.76;83.50;98099.83;1750712;81;21044;-49
2022/11/22 02:02:34;;;;;;;78.17;33.95;;;;;;;1.80;83.42;98099.66;1746643;81;21028;-51
2022/11/22 02:05:08;;;;;;;78.42;33.65;;;;;;;1.82;83.22;98094.39;1744964;82;20985;-47
2022/11/22 02:07:58;;;;;;;83.50;34.95;;;;;;;1.80;83.47;98078.93;1742931;80;21035;-46
2022/11/22 02:10:28;;;;;;;84.85;34.80;;;;;;;1.77;83.33;98085.52;1745091;81;21032;-44
2022/11/22 02:12:57;;;;;;;75.42;33.20;;;;;;;1.63;83.90;98084.74;1745045;82;21451;-50
2022/11/22 02:15:23;;;;;;;88.60;36.48;;;;;;;1.67;83.77;98077.70;1745340;81;21021;-43
2022/11/22 02:17:48;;;;;;;81.15;35.23;;;;;;;1.66;83.82;98081.21;1744973;81;20972;-49
2022/11/22 02:20:16;;;;;;;83.95;35.17;;;;;;;1.68;84.14;98088.47;1745042;82;21028;-48
2022/11/22 02:23:09;;;;;;;84.22;36.13;;;;;;;1.72;84.07;98084.39;1745158;81;21371;-46
2022/11/22 02:25:49;;;;;;;82.35;35.33;;;;;;;1.73;84.07;98081.36;1745028;81;21033;-49
2022/11/22 02:28:15;;;;;;;75.83;33.75;;;;;;;1.74;83.94;98076.55;1745011;82;21020;-43
2022/11/22 02:30:41;;;;;;;80.15;32.90;;;;;;;1.76;83.94;98064.84;1745208;81;21035;-43
2022/11/22 02:33:07;;;;;;;66.07;29.07;;;;;;;1.77;84.04;98076.91;1745106;82;21478;-48
2022/11/22 02:35:33;;;;;;;71.33;28.50;;;;;;;1.76;83.47;98064.84;1745126;81;21032;-46
2022/11/22 02:38:04;;;;;;;57.20;26.27;;;;;;;1.77;83.37;98064.78;1745022;82;20984;-42
2022/11/22 02:40:35;;;;;;;62.58;26.33;;;;;;;1.78;83.25;98066.91;1744998;82;20984;-43
2022/11/22 02:43:06;;;;;;;59.80;25.77;;;;;;;1.84;83.17;98073.17;1745012;82;21001;-46
2022/11/22 02:45:32;;;;;;;61.98;25.52;;;;;;;1.82;83.00;98072.36;1745065;82;21487;-49
2022/11/22 02:48:13;;;;;;;57.23;24.60;;;;;;;1.84;83.39;98081.78;1744750;82;21120;-44
2022/11/22 02:50:40;;;;;;;53.83;23.65;;;;;;;1.84;83.34;98078.36;1745221;82;21392;-44
2022/11/22 02:53:08;;;;;;;56.70;24.40;;;;;;;1.79;83.18;98072.50;1745071;82;21498;-46
2022/11/22 02:55:34;;;;;;;61.40;27.07;;;;;;;1.80;83.28;98076.34;1745136;82;20981;-51
2022/11/22 02:57:59;;;;;;;63.73;27.07;;;;;;;1.78;83.28;98075.98;1745059;82;21004;-49
2022/11/22 03:00:26;;;;;;;59.20;24.35;;;;;;;1.77;83.35;98075.16;1745265;81;21593;-49
2022/11/22 03:02:51;;;;;;;58.42;25.32;;;;;;;1.80;83.35;98071.16;1740008;82;21533;-47
2022/11/22 03:05:17;;;;;;;61.65;24.70;;;;;;;1.81;83.57;98076.70;1738181;82;21009;-45
2022/11/22 03:07:43;;;;;;;61.53;25.55;;;;;;;1.80;83.53;98075.47;1738158;81;21114;-43
2022/11/22 03:10:09;;;;;;;62.75;25.45;;;;;;;1.80;83.56;98076.34;1738261;81;20985;-43
2022/11/22 03:12:35;;;;;;;62.33;25.62;;;;;;;1.79;83.61;98070.75;1738287;82;20988;-52
2022/11/22 03:15:01;;;;;;;64.22;26.55;;;;;;;1.78;83.58;98065.16;1738267;81;21053;-52
2022/11/22 03:17:27;;;;;;;65.70;27.17;;;;;;;1.77;83.88;98062.19;1738245;82;21044;-47
2022/11/22 03:19:52;;;;;;;61.18;26.42;;;;;;;1.76;84.18;98057.89;1738220;81;21021;-46
2022/11/22 03:22:18;;;;;;;69.10;26.95;;;;;;;1.79;84.25;98059.55;1738190;82;20977;-49
2022/11/22 03:24:44;;;;;;;66.12;27.55;;;;;;;1.77;84.52;98058.77;1737527;82;21060;-42
2022/11/22 03:27:10;;;;;;;75.80;30.62;;;;;;;1.78;84.59;98049.60;1738248;82;21001;-45
2022/11/22 03:29:35;;;;;;;69.35;26.30;;;;;;;1.78;84.95;98044.42;1738296;82;20973;-46
2022/11/22 03:32:01;;;;;;;68.37;26.82;;;;;;;1.78;84.79;98047.02;1738243;82;20998;-49
2022/11/22 03:34:27;;;;;;;59.95;24.75;;;;;;;1.82;84.81;98044.72;1738269;82;21004;-47
2022/11/22 03:36:52;;;;;;;62.78;24.27;;;;;;;1.84;84.59;98032.99;1738262;82;21005;-45
2022/11/22 03:39:18;;;;;;;58.38;24.32;;;;;;;1.87;84.63;98044.09;1738402;81;21040;-48
2022/11/22 03:41:44;;;;;;;52.45;23.35;;;;;;;1.88;84.59;98045.75;1738369;82;21004;-44
2022/11/22 03:44:10;;;;;;;56.88;22.93;;;;;;;1.87;84.62;98051.86;1738429;82;20997;-44
2022/11/22 03:46:36;;;;;;;57.60;24.60;;;;;;;1.80;84.78;98053.01;1738485;82;21513;-43
2022/11/22 03:49:01;;;;;;;62.53;24.80;;;;;;;1.79;84.87;98058.25;1738371;82;21581;-45
2022/11/22 03:51:27;;;;;;;65.75;24.92;;;;;;;1.80;84.92;98063.38;1738333;81;21052;-42
2022/11/22 03:53:53;;;;;;;64.10;24.82;;;;;;;1.75;85.13;98066.59;1738368;82;20997;-42
2022/11/22 03:56:19;;;;;;;59.67;24.65;;;;;;;1.78;85.06;98067.75;1738382;82;20989;-49
2022/11/22 03:58:44;;;;;;;58.28;23.60;;;;;;;1.78;85.15;98066.45;1738405;82;20965;-48
2022/11/22 04:01:10;;;;;;;57.83;24.77;;;;;;;1.77;85.61;98072.56;1738388;82;20997;-51
2022/11/22 04:03:36;;;;;;;58.60;23.70;;;;;;;1.82;85.25;98066.75;1744439;82;21020;-46
2022/11/22 04:06:02;;;;;;;64.97;25.62;;;;;;;1.88;85.03;98069.55;1745185;81;20965;-50
2022/11/22 04:08:28;;;;;;;64.77;25.17;;;;;;;1.82;85.27;98078.41;1745236;82;21456;-50
2022/11/22 04:10:54;;;;;;;68.17;24.45;;;;;;;1.83;85.51;98077.95;1745166;82;20998;-45
2022/11/22 04:13:19;;;;;;;59.93;24.50;;;;;;;1.86;85.54;98082.56;1745232;81;20962;-51
2022/11/22 04:15:45;;;;;;;61.58;24.20;;;;;;;1.88;85.28;98080.75;1745174;82;21004;-46
2022/11/22 04:18:13;;;;;;;59.10;23.18;;;;;;;1.83;85.33;98080.55;1745239;81;20977;-46
2022/11/22 04:23:25;;;;;;;66.05;24.45;;;;;;;1.77;85.61;98073.86;1745291;82;20985;-49
2022/11/22 04:25:54;;;;;;;51.13;23.30;;;;;;;1.82;85.87;98074.95;1745234;81;20977;-43
2022/11/22 04:28:23;;;;;;;58.17;24.50;;;;;;;1.84;85.83;98083.55;1745179;82;20997;-49
2022/11/22 04:33:35;;;;;;;51.85;23.32;;;;;;;1.88;85.65;98071.67;1745256;82;21485;-43
2022/11/22 04:36:01;;;;;;;53.28;25.27;;;;;;;1.90;85.61;98072.45;1745394;81;20981;-46
2022/11/22 04:38:27;;;;;;;60.15;24.95;;;;;;;1.91;85.68;98075.45;1745212;81;21041;-52
2022/11/22 04:40:53;;;;;;;59.03;24.57;;;;;;;1.95;85.60;98070.13;1745167;82;21036;-48
2022/11/22 04:46:11;;;;;;;62.30;26.20;;;;;;;1.91;85.66;98072.86;1748496;81;20984;-44
2022/11/22 04:48:37;;;;;;;;;;;;;;;1.91;85.71;98065.09;1747823;82;21024;-48
2022/11/22 04:53:48;;;;;;;60.67;25.80;;;;;;;1.92;85.83;98060.27;1745140;82;20964;-49
2022/11/22 04:56:14;;;;;;;56.10;26.00;;;;;;;1.95;85.74;98067.53;1745192;81;20997;-44
2022/11/22 04:58:40;;;;;;;54.73;24.50;;;;;;;1.89;86.10;98069.48;1745194;81;21124;-47
2022/11/22 05:01:07;;;;;;;54.38;26.02;;;;;;;1.89;86.09;98061.71;1724455;82;20965;-45
2022/11/22 05:03:32;;;;;;;64.03;25.77;;;;;;;1.95;85.96;98069.69;1755414;81;21020;-44
2022/11/22 05:06:03;;;;;;;59.77;26.68;;;;;;;1.96;86.05;98065.34;1758738;81;20972;-45
2022/11/22 05:08:30;;;;;;;62.75;26.48;;;;;;;1.88;86.25;98064.36;1758676;81;21000;-46
2022/11/22 05:10:56;;;;;;;60.17;26.62;;;;;;;1.91;86.21;98063.78;1758840;81;20996;-44
2022/11/22 05:13:35;;;;;;;66.62;28.12;;;;;;;1.91;86.54;98061.20;1758823;81;20996;-47
2022/11/22 05:16:04;;;;;;;65.50;28.45;;;;;;;1.96;86.36;98063.59;1757682;81;20984;-45
2022/11/22 05:18:30;;;;;;;67.27;29.52;;;;;;;2.00;86.20;98063.02;1758701;81;20988;-47
2022/11/22 05:20:56;;;;;;;66.50;27.75;;;;;;;2.02;86.30;98059.90;1758659;81;20992;-45
2022/11/22 05:26:09;;;;;;;72.72;29.12;;;;;;;2.05;86.43;98058.03;1758819;81;21004;-45
2022/11/22 05:28:37;;;;;;;66.30;29.05;;;;;;;2.11;86.43;98063.41;1758697;81;21599;-49
2022/11/22 05:31:16;;;;;;;84.40;31.93;;;;;;;2.11;86.53;98064.71;1758886;81;21028;-48
2022/11/22 05:33:44;;;;;;;79.75;32.90;;;;;;;2.14;86.18;98063.30;1758641;81;21086;-46
2022/11/22 05:36:11;;;;;;;74.58;32.55;;;;;;;2.12;86.32;98058.63;1758684;81;21008;-47
2022/11/22 05:38:38;;;;;;;78.05;31.35;;;;;;;2.13;86.29;98066.81;1758934;81;21040;-49
2022/11/22 05:41:06;;;;;;;80.53;33.08;;;;;;;2.16;86.32;98071.02;1758698;81;21008;-50
2022/11/22 05:43:32;;;;;;;76.02;33.88;;;;;;;2.17;86.34;98068.38;1758664;80;21044;-45
2022/11/22 05:46:16;;;;;;;73.40;32.60;;;;;;;2.20;86.25;98064.36;1758621;81;20953;-41
2022/11/22 05:48:44;;;;;;;71.60;30.48;;;;;;;2.15;86.35;98074.08;1758735;81;21457;-47
2022/11/22 05:51:13;;;;;;;66.97;29.32;;;;;;;2.22;85.99;98074.65;1758741;81;20980;-49
2022/11/22 05:53:41;;;;;;;73.97;30.90;;;;;;;2.24;86.07;98077.59;1758789;81;20979;-46
2022/11/22 05:56:09;;;;;;;;;;;;;;;2.26;85.98;98079.66;1761351;81;21521;-47
2022/11/22 05:58:35;;;;;;;62.38;27.20;;;;;;;2.18;86.19;98079.12;1758681;81;20115;-47
2022/11/22 06:01:04;;;;;;;67.55;29.00;;;;;;;2.16;86.29;98082.23;1758735;81;20996;-45
2022/11/22 06:03:30;;;;;;;62.80;28.50;;;;;;;2.14;86.39;98080.62;1754878;81;21048;-50
2022/11/22 06:05:56;;;;;;;73.15;27.48;;;;;;;2.04;86.59;98073.21;1753181;82;21017;-47
2022/11/22 06:08:22;;;;;;;67.67;28.52;;;;;;;2.11;86.61;98079.84;1753124;82;20988;-42
2022/11/22 06:10:47;;;;;;;74.25;30.17;;;;;;;2.06;86.80;98077.05;1767036;80;21516;-44
2022/11/22 06:13:13;;;;;;;67.03;29.50;;;;;;;2.12;86.69;98080.67;1778093;80;21468;-47
2022/11/22 06:15:39;;;;;;;60.83;26.35;;;;;;;2.13;86.92;98077.19;1778233;81;20991;-54
2022/11/22 06:18:05;;;;;;;61.42;26.35;;;;;;;2.05;87.04;98075.34;1778325;80;21593;-50
2022/11/22 06:20:30;;;;;;;64.20;27.95;;;;;;;1.95;87.17;98083.95;1778117;81;21453;-50
2022/11/22 06:22:59;;;;;;;65.42;27.05;;;;;;;2.06;87.26;98073.16;1778151;80;20970;-49
2022/11/22 06:25:25;;;;;;;57.38;26.52;;;;;;;2.12;87.13;98079.38;1778111;80;20963;-50
2022/11/22 06:27:51;;;;;;;65.83;27.02;;;;;;;2.17;87.00;98078.74;1778161;80;21014;-45
2022/11/22 06:30:17;;;;;;;67.25;28.73;;;;;;;2.22;86.72;98075.52;1778138;80;20952;-45
2022/11/22 06:32:43;;;;;;;63.80;28.77;;;;;;;2.24;86.68;98082.78;1778170;81;21055;-49
2022/11/22 06:35:09;;;;;;;67.78;28.02;;;;;;;2.23;86.83;98085.43;1778199;80;21582;-46
2022/11/22 06:37:35;;;;;;;71.57;30.92;;;;;;;2.20;86.85;98092.03;1778130;80;20975;-44
2022/11/22 06:40:00;;;;;;;72.80;29.63;;;;;;;2.20;86.86;98082.52;1778139;80;20959;-45
2022/11/22 06:42:26;;;;;;;69.67;31.23;;;;;;;2.23;86.98;98086.27;1778209;80;21441;-44
2022/11/22 06:44:52;;;;;;;66.65;29.32;;;;;;;2.29;86.90;98092.95;1778208;80;21535;-47
2022/11/22 06:47:17;;;;;;;67.72;28.40;;;;;;;2.29;87.01;98093.81;1778141;80;20979;-41
2022/11/22 06:49:44;;;;;;;66.15;28.40;;;;;;;2.36;86.68;98089.66;1778130;80;20971;-52
2022/11/22 06:52:10;;;;;;;67.62;29.02;;;;;;;2.29;86.83;98088.63;1778277;80;20955;-43
2022/11/22 06:54:36;;;;;;;64.12;27.65;;;;;;;2.34;86.70;98082.40;1778187;80;21511;-48
2022/11/22 06:57:02;;;;;;;66.62;28.60;;;;;;;2.36;86.67;98090.95;1778197;80;21562;-46
2022/11/22 06:59:28;;;;;;;68.52;29.00;;;;;;;2.41;86.65;98096.80;1778139;80;21038;-50
2022/11/22 07:01:54;;;;;;;68.10;28.35;;;;;;;2.44;86.32;98103.17;1778260;80;20983;-49
2022/11/22 07:04:19;;;;;;;65.70;28.77;;;;;;;2.39;86.54;98105.11;1787710;80;21010;-44
2022/11/22 07:06:47;;;;;;;70.28;29.55;;;;;;;2.40;86.46;98108.08;1788252;80;21107;-49
2022/11/22 07:09:13;;;;;;;69.12;28.77;;;;;;;2.43;86.40;98105.36;1788531;80;21061;-47
2022/11/22 07:11:40;;;;;;;62.48;26.97;;;;;;;2.43;86.28;98101.47;1768329;79;21039;-44
2022/11/22 07:14:06;;;;;;;66.20;28.92;;;;;;;2.42;86.35;98106.26;1763841;81;21048;-40
2022/11/22 07:16:32;;;;;;;71.05;29.60;;;;;;;2.41;86.28;98104.59;1764089;80;21639;-40
2022/11/22 07:19:03;;;;;;;74.50;29.87;;;;;;;2.42;86.55;98108.85;1763782;80;21767;-43
2022/11/22 07:21:27;;;;;;;68.62;30.90;;;;;;;2.43;86.72;98107.96;1762023;80;20961;-43
2022/11/22 07:23:55;;;;;;;67.67;28.62;;;;;;;2.48;86.50;98109.45;1763796;81;20987;-44
2022/11/22 07:26:24;;;;;;;75.57;31.62;;;;;;;2.52;86.55;98116.66;1763610;80;20999;-45
2022/11/22 07:28:50;;;;;;;75.52;32.88;;;;;;;2.58;86.37;98115.55;1763905;80;20983;-48
2022/11/22 07:31:17;;;;;;;73.90;31.05;;;;;;;2.54;86.26;98121.79;1763972;80;21485;-44
2022/11/22 07:33:44;;;;;;;75.85;31.52;;;;;;;2.62;86.02;98128.36;1763760;80;20991;-43
2022/11/22 07:36:14;;;;;;;71.00;30.57;;;;;;;2.60;85.92;98125.42;1763730;80;21034;-43
2022/11/22 07:38:40;;;;;;;64.27;28.65;;;;;;;2.64;85.79;98130.89;1763724;80;20996;-44
2022/11/22 07:41:07;;;;;;;75.00;32.85;;;;;;;2.63;85.50;98120.11;1763598;81;21008;-43
2022/11/22 07:43:34;;;;;;;68.10;31.37;;;;;;;2.60;85.47;98121.09;1763875;80;20980;-43
2022/11/22 07:46:02;;;;;;;62.48;28.98;;;;;;;2.67;85.48;98130.74;1764222;81;21465;-43
2022/11/22 07:48:28;;;;;;;61.83;29.30;;;;;;;2.63;85.38;98127.89;1763604;80;21035;-48
2022/11/22 07:50:54;;;;;;;66.00;29.37;;;;;;;2.64;85.22;98129.13;1763648;80;20995;-44
2022/11/22 07:53:20;;;;;;;61.85;29.12;;;;;;;2.67;85.33;98119.93;1763883;81;21011;-47
2022/11/22 07:55:46;;;;;;;64.37;29.05;;;;;;;2.62;85.14;98116.67;1763462;81;20995;-46
2022/11/22 07:58:12;;;;;;;67.22;32.65;;;;;;;2.63;85.07;98113.16;1763722;80;21179;-40
2022/11/22 08:00:38;;;;;;;80.00;38.45;;;;;;;2.65;85.15;98112.63;1763880;80;21032;-43
2022/11/22 08:03:08;;;;;;;75.40;34.25;;;;;;;2.68;85.06;98113.81;1759347;80;21021;-40
2022/11/22 08:05:33;;;;;;;83.22;36.93;;;;;;;2.68;85.16;98112.52;1745054;81;20993;-40
2022/11/22 08:07:59;;;;;;;73.28;34.38;;;;;;;2.81;85.26;98106.34;1744991;81;21561;-45
2022/11/22 08:10:25;;;;;;;69.40;32.00;;;;;;;2.81;85.26;98106.34;1743608;81;21577;-38
2022/11/22 08:12:51;;;;;;;74.20;36.83;;;;;;;2.84;84.99;98102.80;1745055;82;21486;-42
2022/11/22 08:15:19;;;;;;;73.85;33.88;;;;;;;2.82;84.49;98114.97;1744920;81;21549;-43
2022/11/22 08:17:44;;;;;;;71.12;31.50;;;;;;;2.80;84.50;98115.49;1744705;81;21477;-46
2022/11/22 08:20:11;;;;;;;61.98;29.23;;;;;;;2.84;84.41;98116.61;1744925;81;20993;-44
2022/11/22 08:22:39;;;;;;;63.92;30.97;;;;;;;2.73;84.73;98119.25;1745085;82;21082;-40
2022/11/22 08:25:11;;;;;;;63.75;31.02;;;;;;;2.72;84.72;98114.53;1744856;82;21000;-46
2022/11/22 08:27:34;;;;;;;67.35;32.80;;;;;;;2.75;84.68;98120.90;1744576;81;20992;-42
2022/11/22 08:30:00;;;;;;;65.67;32.10;;;;;;;2.81;84.82;98117.20;1744956;82;20973;-43
2022/11/22 08:32:25;;;;;;;67.35;31.95;;;;;;;2.71;84.94;98113.29;1745083;81;20992;-52
2022/11/22 08:34:51;;;;;;;66.67;32.00;;;;;;;2.73;84.93;98115.36;1744012;81;21032;-47
2022/11/22 08:37:17;;;;;;;64.37;30.10;;;;;;;2.72;84.96;98114.98;1743897;81;21032;-52
2022/11/22 08:39:43;;;;;;;63.73;30.75;;;;;;;2.69;84.75;98107.73;1744084;82;21063;-43
2022/11/22 08:42:09;;;;;;;99.35;44.83;;;;;;;2.80;84.55;98106.41;1744195;82;21009;-54
2022/11/22 08:44:34;;;;;;;70.40;32.55;;;;;;;2.81;84.38;98110.70;1744070;82;21009;-44
2022/11/22 08:47:00;;;;;;;73.35;32.65;;;;;;;2.79;84.34;98107.33;1745036;82;21005;-48
2022/11/22 08:49:26;;;;;;;62.23;30.88;;;;;;;2.86;84.36;98110.06;1745089;81;20996;-48
2022/11/22 08:51:52;;;;;;;64.97;30.35;;;;;;;2.98;84.34;98113.86;1745239;82;20984;-47
2022/11/22 08:54:17;;;;;;;58.65;29.18;;;;;;;2.99;84.20;98119.00;1745286;81;21509;-45
2022/11/22 08:56:43;;;;;;;59.45;29.50;;;;;;;3.00;83.75;98123.72;1745141;82;21522;-47
2022/11/22 08:59:09;;;;;;;71.35;30.17;;;;;;;2.87;83.53;98141.59;1745191;81;20989;-46
2022/11/22 09:01:35;;;;;;;69.50;32.58;;;;;;;2.89;84.09;98157.94;1745120;81;21032;-44
2022/11/22 09:04:00;;;;;;;66.05;31.12;;;;;;;2.89;84.09;98157.94;1754411;80;21016;-53
2022/11/22 09:06:26;;;;;;;65.65;29.55;;;;;;;2.87;83.87;98162.36;1763791;81;20987;-44
2022/11/22 09:08:53;;;;;;;65.37;31.02;;;;;;;2.74;83.78;98160.73;1763803;81;20980;-50
2022/11/22 09:11:19;;;;;;;55.70;28.25;;;;;;;2.79;83.81;98164.45;1763952;80;20980;-46
2022/11/22 09:13:46;;;;;;;54.67;28.05;;;;;;;2.81;83.59;98173.85;1763847;80;21520;-47
2022/11/22 09:16:18;;;;;;;52.80;26.62;;;;;;;2.79;83.75;98182.16;1764115;81;20976;-49
2022/11/22 09:18:46;;;;;;;62.95;28.52;;;;;;;2.68;83.96;98181.30;1763756;80;21509;-41
2022/11/22 09:21:16;;;;;;;60.43;29.90;;;;;;;2.69;83.75;98181.70;1763826;80;21027;-45
2022/11/22 09:23:44;;;;;;;54.77;29.48;;;;;;;2.73;84.10;98181.56;1763806;81;20972;-47
2022/11/22 09:26:12;;;;;;;;;;;;;;;2.82;84.34;98177.28;1766447;81;21140;-53
2022/11/22 09:28:38;;;;;;;49.50;27.27;;;;;;;2.80;83.95;98171.31;1763821;80;20133;-46
2022/11/22 09:31:13;;;;;;;49.93;27.45;;;;;;;2.83;83.68;98173.79;1763740;81;21403;-47
2022/11/22 09:33:43;;;;;;;57.67;30.08;;;;;;;2.88;83.81;98175.28;1763347;81;20999;-43
2022/11/22 09:36:13;;;;;;;52.75;28.10;;;;;;;2.92;83.80;98181.19;1763585;80;20984;-44
2022/11/22 09:38:39;;;;;;;54.90;28.12;;;;;;;2.87;83.68;98177.94;1763798;80;21003;-45
2022/11/22 09:41:44;;;;;;;71.37;33.85;;;;;;;2.87;83.77;98184.43;1763805;80;20964;-48
2022/11/22 09:44:31;;;;;;;86.37;41.02;;;;;;;2.80;83.99;98174.78;1741016;81;21026;-44
2022/11/22 09:47:08;;;;;;;65.17;32.78;;;;;;;2.81;84.21;98160.03;1760648;81;21201;-48
2022/11/22 09:49:42;;;;;;;59.13;31.10;;;;;;;2.84;84.35;98157.31;1732439;83;21049;-45
2022/11/22 09:52:37;;;;;;;55.33;29.12;;;;;;;2.94;84.31;98157.30;1731943;83;21530;-46
2022/11/22 09:55:21;;;;;;;58.73;30.57;;;;;;;3.00;84.05;98136.71;1738971;81;20998;-45
2022/11/22 09:57:52;;;;;;;65.70;31.68;;;;;;;3.07;83.80;98128.61;1736471;81;20998;-48
2022/11/22 10:00:24;;;;;;;53.98;30.68;;;;;;;3.21;83.87;98129.29;1755583;82;21611;-45
2022/11/22 10:03:31;;;;;;;50.43;29.10;;;;;;;3.30;83.43;98127.20;1756041;81;21356;-52
2022/11/22 10:06:01;;;;;;;63.08;37.00;;;;;;;3.26;83.20;98122.14;1756388;82;21022;-46
2022/11/22 10:08:53;;;;;;;57.45;31.55;;;;;;;3.28;83.15;98114.75;1756348;81;21011;-49
2022/11/22 10:11:33;;;;;;;64.10;34.75;;;;;;;3.35;83.13;98112.27;1755987;82;20994;-45
2022/11/22 10:14:03;;;;;;;64.42;33.75;;;;;;;3.40;83.34;98104.64;1756430;82;20990;-46
2022/11/22 10:16:40;;;;;;;57.17;32.10;;;;;;;3.54;83.17;98108.36;1756305;81;21003;-46
2022/11/22 10:19:26;;;;;;;58.78;32.13;;;;;;;3.63;83.01;98112.67;1756649;81;21025;-52
2022/11/22 10:21:52;;;;;;;59.40;31.70;;;;;;;3.68;82.50;98112.47;1750741;81;21062;-48
2022/11/22 10:24:18;;;;;;;59.05;30.75;;;;;;;3.67;82.10;98109.47;1756099;82;21615;-46
2022/11/22 10:26:45;;;;;;;65.00;32.88;;;;;;;3.64;82.05;98108.34;1756494;82;21547;-44
2022/11/22 10:29:35;;;;;;;58.40;32.85;;;;;;;3.63;81.99;98107.94;1756288;81;21002;-44
2022/11/22 10:32:29;;;;;;;60.00;32.98;;;;;;;3.61;82.02;98109.77;1756167;82;21015;-49
2022/11/22 10:35:00;;;;;;;55.23;30.10;;;;;;;3.68;82.33;98109.04;1756411;82;20982;-52
2022/11/22 10:38:00;;;;;;;56.33;29.27;;;;;;;3.61;82.09;98115.80;1758756;79;20951;-48
2022/11/22 10:40:50;;;;;;;60.10;30.17;;;;;;;3.51;82.29;98118.89;1760367;79;21089;-43
2022/11/22 10:43:36;;;;;;;47.85;27.95;;;;;;;3.53;82.49;98122.26;1753088;81;20985;-51
2022/11/22 10:46:25;;;;;;;59.15;29.85;;;;;;;3.38;82.93;98128.53;1754435;81;21872;-49
2022/11/22 10:49:35;;;;;;;63.05;30.48;;;;;;;3.33;83.04;98125.31;1759611;81;20971;-46
2022/11/22 10:52:30;;;;;;;75.03;34.23;;;;;;;3.38;83.34;98131.13;1756044;82;21505;-50
2022/11/22 10:55:10;;;;;;;72.92;33.67;;;;;;;3.48;83.17;98121.18;1756388;82;21018;-44
2022/11/22 10:58:02;;;;;;;75.28;36.38;;;;;;;3.48;83.14;98130.28;1756056;82;21086;-44
2022/11/22 11:00:31;;;;;;;67.87;35.13;;;;;;;3.54;83.10;98130.45;1756303;81;21010;-50
2022/11/22 11:03:11;;;;;;;99.92;49.10;;;;;;;3.64;82.77;98126.53;1756927;79;21061;-42
2022/11/22 11:05:54;;;;;;;57.43;29.32;;;;;;;3.75;82.72;98130.78;1711230;81;21487;-44
2022/11/22 11:08:43;;;;;;;56.00;28.55;;;;;;;3.79;82.55;98134.08;1691550;85;21009;-43
2022/11/22 11:11:09;;;;;;;59.15;30.20;;;;;;;3.70;82.23;98128.84;1691386;85;21030;-46
2022/11/22 11:13:55;;;;;;;59.13;29.23;;;;;;;3.81;82.51;98127.88;1691967;85;21052;-42
2022/11/22 11:16:27;;;;;;;58.47;29.77;;;;;;;3.85;82.50;98126.81;1691687;85;21512;-54
2022/11/22 11:19:13;;;;;;;61.95;28.80;;;;;;;3.79;82.45;98120.61;1691757;83;21258;-40
2022/11/22 11:21:39;;;;;;;62.08;29.18;;;;;;;3.84;82.45;98110.84;1691678;84;21158;-50
2022/11/22 11:24:14;;;;;;;58.08;27.20;;;;;;;3.91;82.69;98111.84;1691618;84;21036;-47
2022/11/22 11:26:55;;;;;;;54.80;27.13;;;;;;;3.96;82.42;98101.60;1691072;83;21029;-47
2022/11/22 11:29:31;;;;;;;64.17;30.15;;;;;;;3.95;82.46;98093.90;1691958;85;21005;-51
2022/11/22 11:32:11;;;;;;;66.07;30.70;;;;;;;3.99;82.43;98098.87;1693769;82;21471;-45
2022/11/22 11:34:42;;;;;;;52.65;25.72;;;;;;;4.02;82.31;98093.97;1702843;82;21003;-49
2022/11/22 11:37:22;;;;;;;63.02;28.75;;;;;;;3.88;82.28;98084.70;1734643;82;21581;-47
2022/11/22 11:39:48;;;;;;;63.65;30.35;;;;;;;3.94;82.50;98081.33;1767253;80;20924;-43
2022/11/22 11:42:30;;;;;;;83.17;33.38;;;;;;;3.93;82.64;98077.06;1763525;80;21006;-50
2022/11/22 11:45:27;;;;;;;84.67;36.10;;;;;;;3.94;82.40;98077.89;1739473;82;21003;-48
2022/11/22 11:47:53;;;;;;;72.80;32.75;;;;;;;3.96;82.33;98073.45;1739354;82;21509;-47
2022/11/22 11:50:23;;;;;;;73.60;33.20;;;;;;;3.92;82.58;98075.36;1739280;82;21024;-49
2022/11/22 11:53:03;;;;;;;70.62;33.10;;;;;;;3.98;82.45;98067.28;1738834;82;20964;-48